createdAt,value
2018-01-01T00:00:39.490Z,9.68
2018-01-01T00:01:39.430Z,9.75
2018-01-01T00:02:39.393Z,9.73
2018-01-01T00:03:39.358Z,9.78
2018-01-01T00:04:39.319Z,9.99
2018-01-01T00:05:39.283Z,9.97
2018-01-01T00:06:39.234Z,10.10
2018-01-01T00:07:39.184Z,10.10
2018-01-01T00:08:39.140Z,10.06
2018-01-01T00:09:39.105Z,10.22
2018-01-01T00:10:39.067Z,10.12
2018-01-01T00:11:39.019Z,10.12
2018-01-01T00:12:38.980Z,10.04
2018-01-01T00:13:38.941Z,10.15
2018-01-01T00:14:38.917Z,10.14
2018-01-01T00:15:38.858Z,10.25
2018-01-01T00:16:38.829Z,10.19
2018-01-01T00:17:38.774Z,10.21
2018-01-01T00:18:38.758Z,10.15
2018-01-01T00:19:38.689Z,10.18
2018-01-01T00:20:38.656Z,10.07
2018-01-01T00:21:38.621Z,10.00
2018-01-01T00:22:38.586Z,10.15
2018-01-01T00:23:38.526Z,10.17
2018-01-01T00:24:38.478Z,10.21
2018-01-01T00:25:38.454Z,10.15
2018-01-01T00:26:38.426Z,9.94
2018-01-01T00:27:38.396Z,9.99
2018-01-01T00:28:38.327Z,9.96
2018-01-01T00:29:38.281Z,9.78
2018-01-01T00:30:38.256Z,9.79
2018-01-01T00:31:38.231Z,9.91
2018-01-01T00:32:38.159Z,9.97
2018-01-01T00:33:38.133Z,9.78
2018-01-01T00:34:38.079Z,9.76
2018-01-01T00:35:38.058Z,10.00
2018-01-01T00:36:38.003Z,9.81
2018-01-01T00:37:37.954Z,9.89
2018-01-01T00:38:37.930Z,9.64
2018-01-01T00:39:37.894Z,9.58
2018-01-01T00:40:37.836Z,9.58
2018-01-01T00:41:37.798Z,9.67
2018-01-01T00:42:37.748Z,9.68
2018-01-01T00:43:37.719Z,9.76
2018-01-01T00:44:37.680Z,9.97
2018-01-01T00:45:37.631Z,9.86
2018-01-01T00:46:37.581Z,9.79
2018-01-01T00:47:37.545Z,10.04
2018-01-01T00:48:37.527Z,9.78
2018-01-01T00:49:37.465Z,10.01
2018-01-01T00:50:37.415Z,10.44
2018-01-01T00:51:37.400Z,10.55
2018-01-01T00:52:37.352Z,10.55
2018-01-01T00:53:37.305Z,10.32
2018-01-01T00:54:37.257Z,10.15
2018-01-01T00:55:37.215Z,10.40
2018-01-01T00:56:37.190Z,10.60
2018-01-01T00:57:37.148Z,11.01
2018-01-01T00:58:37.108Z,11.28
2018-01-01T00:59:37.049Z,11.36
2018-01-01T01:00:37.030Z,11.32
2018-01-01T01:01:37.002Z,11.29
2018-01-01T01:02:36.982Z,11.29
2018-01-01T01:03:36.901Z,11.32
2018-01-01T01:04:36.858Z,11.36
2018-01-01T01:05:36.817Z,11.16
2018-01-01T01:06:36.773Z,11.29
2018-01-01T01:07:36.735Z,11.32
2018-01-01T01:08:36.710Z,11.24
2018-01-01T01:09:36.667Z,11.21
2018-01-01T01:10:36.622Z,11.39
2018-01-01T01:11:36.612Z,11.46
2018-01-01T01:12:36.526Z,11.49
2018-01-01T01:13:36.507Z,11.49
2018-01-01T01:14:36.476Z,11.50
2018-01-01T01:15:36.409Z,11.53
2018-01-01T01:16:36.397Z,11.49
2018-01-01T01:17:36.360Z,11.52
2018-01-01T01:18:36.342Z,11.35
2018-01-01T01:19:36.257Z,11.54
2018-01-01T01:20:36.211Z,11.52
2018-01-01T01:21:36.179Z,11.49
2018-01-01T01:22:36.145Z,11.54
2018-01-01T01:23:36.075Z,11.52
2018-01-01T01:24:36.060Z,11.49
2018-01-01T01:25:36.013Z,11.49
2018-01-01T01:26:35.979Z,11.41
2018-01-01T01:27:35.921Z,11.64
2018-01-01T01:28:35.898Z,11.61
2018-01-01T01:29:35.856Z,11.65
2018-01-01T01:30:35.822Z,11.64
2018-01-01T01:31:35.762Z,11.62
2018-01-01T01:32:35.736Z,11.44
2018-01-01T01:33:35.714Z,11.38
2018-01-01T01:34:35.640Z,11.43
2018-01-01T01:35:35.629Z,11.41
2018-01-01T01:36:35.572Z,11.49
2018-01-01T01:37:35.522Z,11.56
2018-01-01T01:38:35.501Z,11.54
2018-01-01T01:39:35.458Z,11.56
2018-01-01T01:40:35.442Z,11.46
2018-01-01T01:41:35.366Z,11.46
2018-01-01T01:42:35.337Z,11.39
2018-01-01T01:43:35.289Z,11.41
2018-01-01T01:44:35.246Z,11.34
2018-01-01T01:45:35.196Z,11.25
2018-01-01T01:46:35.186Z,11.36
2018-01-01T01:47:35.124Z,11.52
2018-01-01T01:48:35.087Z,11.52
2018-01-01T01:49:35.057Z,11.56
2018-01-01T01:50:35.028Z,11.54
2018-01-01T01:51:34.968Z,11.52
2018-01-01T01:52:34.943Z,11.50
2018-01-01T01:53:34.885Z,11.38
2018-01-01T01:54:34.849Z,11.44
2018-01-01T01:55:34.812Z,11.53
2018-01-01T01:56:34.773Z,11.50
2018-01-01T01:57:36.249Z,11.49
2018-01-01T01:58:34.678Z,11.46
2018-01-01T01:59:34.634Z,11.50
2018-01-01T02:00:34.600Z,11.59
2018-01-01T02:01:34.595Z,11.53
2018-01-01T02:02:34.523Z,11.47
2018-01-01T02:03:34.502Z,11.41
2018-01-01T02:06:07.842Z,11.31
2018-01-01T02:07:07.757Z,11.29
2018-01-01T02:09:01.522Z,11.27
2018-01-01T02:10:01.226Z,11.21
2018-01-01T02:11:55.117Z,11.24
2018-01-01T02:12:54.777Z,11.21
2018-01-01T02:14:48.684Z,11.20
2018-01-01T02:15:48.361Z,11.32
2018-01-01T02:17:42.052Z,11.21
2018-01-01T02:18:41.927Z,11.14
2018-01-01T02:20:36.525Z,11.21
2018-01-01T02:21:36.534Z,11.20
2018-01-01T02:23:30.309Z,11.13
2018-01-01T02:24:29.998Z,11.09
2018-01-01T02:26:23.240Z,11.07
2018-01-01T02:27:22.922Z,10.99
2018-01-01T02:29:17.751Z,10.91
2018-01-01T02:30:17.416Z,10.81
2018-01-01T02:32:11.312Z,10.98
2018-01-01T02:33:11.233Z,11.02
2018-01-01T02:35:05.949Z,11.03
2018-01-01T02:36:05.550Z,11.02
2018-01-01T02:37:59.368Z,10.78
2018-01-01T02:38:59.361Z,10.91
2018-01-01T02:40:54.059Z,10.95
2018-01-01T02:41:53.660Z,10.80
2018-01-01T02:43:47.398Z,10.92
2018-01-01T02:44:47.345Z,10.92
2018-01-01T02:46:40.429Z,11.01
2018-01-01T02:47:40.045Z,10.88
2018-01-01T02:49:33.664Z,10.78
2018-01-01T02:50:33.887Z,10.84
2018-01-01T02:52:26.874Z,10.89
2018-01-01T02:53:26.532Z,10.89
2018-01-01T02:55:19.963Z,10.88
2018-01-01T02:56:19.612Z,10.78
2018-01-01T02:58:14.457Z,10.66
2018-01-01T02:59:14.092Z,10.59
2018-01-01T03:00:14.060Z,10.66
2018-01-01T03:01:14.011Z,10.77
2018-01-01T03:02:14.078Z,10.70
2018-01-01T03:03:13.945Z,10.74
2018-01-01T03:04:14.207Z,10.74
2018-01-01T03:05:13.870Z,10.71
2018-01-01T03:06:13.811Z,10.65
2018-01-01T03:07:13.783Z,10.76
2018-01-01T03:08:13.751Z,10.76
2018-01-01T03:09:13.688Z,10.94
2018-01-01T03:10:13.656Z,10.92
2018-01-01T03:11:13.627Z,10.78
2018-01-01T03:12:13.564Z,10.83
2018-01-01T03:13:13.549Z,10.74
2018-01-01T03:14:13.511Z,10.86
2018-01-01T03:15:13.448Z,10.77
2018-01-01T03:16:13.421Z,10.81
2018-01-01T03:17:13.371Z,10.81
2018-01-01T03:18:13.337Z,10.78
2018-01-01T03:19:13.311Z,10.76
2018-01-01T03:20:13.274Z,10.73
2018-01-01T03:21:13.224Z,10.65
2018-01-01T03:22:13.163Z,10.74
2018-01-01T03:23:13.123Z,10.86
2018-01-01T03:24:13.083Z,10.74
2018-01-01T03:25:13.038Z,10.81
2018-01-01T03:26:13.004Z,10.80
2018-01-01T03:27:12.964Z,10.84
2018-01-01T03:28:12.947Z,10.96
2018-01-01T03:29:12.899Z,10.81
2018-01-01T03:30:12.860Z,10.80
2018-01-01T03:31:12.814Z,10.92
2018-01-01T03:32:12.774Z,10.94
2018-01-01T03:33:12.759Z,10.88
2018-01-01T03:34:12.724Z,10.98
2018-01-01T03:35:12.654Z,10.92
2018-01-01T03:36:12.633Z,11.06
2018-01-01T03:37:12.568Z,11.03
2018-01-01T03:38:12.512Z,11.10
2018-01-01T03:39:12.477Z,11.02
2018-01-01T03:40:12.429Z,10.99
2018-01-01T03:41:12.395Z,10.99
2018-01-01T03:42:12.360Z,11.06
2018-01-01T03:43:12.347Z,11.02
2018-01-01T03:44:12.297Z,11.02
2018-01-01T03:45:12.254Z,11.02
2018-01-01T03:46:12.204Z,11.01
2018-01-01T03:47:12.162Z,11.01
2018-01-01T03:48:12.142Z,10.84
2018-01-01T03:49:12.085Z,10.78
2018-01-01T03:50:12.069Z,10.78
2018-01-01T03:51:12.034Z,10.81
2018-01-01T03:52:11.957Z,10.81
2018-01-01T03:53:11.969Z,10.78
2018-01-01T03:54:11.866Z,10.74
2018-01-01T03:55:11.862Z,10.66
2018-01-01T03:56:11.792Z,10.78
2018-01-01T03:57:11.771Z,10.78
2018-01-01T03:58:11.750Z,10.76
2018-01-01T03:59:11.743Z,10.70
2018-01-01T04:00:11.630Z,10.76
2018-01-01T04:01:11.595Z,10.78
2018-01-01T04:02:12.433Z,10.74
2018-01-01T04:03:11.537Z,10.68
2018-01-01T04:04:11.476Z,10.83
2018-01-01T04:05:11.478Z,10.77
2018-01-01T04:06:11.416Z,10.81
2018-01-01T04:07:11.385Z,10.76
2018-01-01T04:08:11.329Z,10.68
2018-01-01T04:09:11.283Z,10.73
2018-01-01T04:10:11.252Z,10.71
2018-01-01T04:11:11.203Z,10.68
2018-01-01T04:12:11.152Z,10.65
2018-01-01T04:13:11.121Z,10.70
2018-01-01T04:14:11.077Z,10.65
2018-01-01T04:15:11.025Z,10.73
2018-01-01T04:16:10.995Z,10.60
2018-01-01T04:17:10.943Z,10.68
2018-01-01T04:18:10.923Z,10.65
2018-01-01T04:19:10.871Z,10.62
2018-01-01T04:20:10.829Z,10.53
2018-01-01T04:21:10.798Z,10.66
2018-01-01T04:22:10.775Z,10.59
2018-01-01T04:23:10.718Z,10.58
2018-01-01T04:24:10.669Z,10.59
2018-01-01T04:25:10.661Z,10.56
2018-01-01T04:26:10.614Z,10.46
2018-01-01T04:27:10.557Z,10.55
2018-01-01T04:28:10.547Z,10.63
2018-01-01T04:29:10.476Z,10.58
2018-01-01T04:30:10.442Z,10.55
2018-01-01T04:31:10.417Z,10.60
2018-01-01T04:32:10.363Z,10.63
2018-01-01T04:33:10.317Z,10.56
2018-01-01T04:34:10.281Z,10.51
2018-01-01T04:35:10.268Z,10.43
2018-01-01T04:36:10.182Z,10.47
2018-01-01T04:37:10.158Z,10.56
2018-01-01T04:38:10.106Z,10.62
2018-01-01T04:39:10.079Z,10.58
2018-01-01T04:40:10.027Z,10.58
2018-01-01T04:41:09.999Z,10.62
2018-01-01T04:42:09.960Z,10.60
2018-01-01T04:43:09.934Z,10.51
2018-01-01T04:44:09.857Z,10.47
2018-01-01T04:45:10.108Z,10.44
2018-01-01T04:46:09.781Z,10.39
2018-01-01T04:47:09.770Z,10.39
2018-01-01T04:48:09.700Z,10.36
2018-01-01T04:49:09.658Z,10.39
2018-01-01T04:50:09.614Z,10.34
2018-01-01T04:51:09.582Z,10.32
2018-01-01T04:52:09.542Z,10.22
2018-01-01T04:53:09.525Z,10.26
2018-01-01T04:54:09.475Z,10.33
2018-01-01T04:55:09.409Z,10.18
2018-01-01T04:56:09.386Z,10.21
2018-01-01T04:57:09.341Z,10.22
2018-01-01T04:58:09.301Z,10.12
2018-01-01T04:59:09.268Z,10.30
2018-01-01T05:00:09.231Z,10.21
2018-01-01T05:01:09.176Z,10.09
2018-01-01T05:02:09.144Z,10.15
2018-01-01T05:03:09.089Z,10.09
2018-01-01T05:04:09.048Z,10.07
2018-01-01T05:05:09.011Z,9.94
2018-01-01T05:06:08.970Z,9.96
2018-01-01T05:07:08.952Z,9.99
2018-01-01T05:08:08.892Z,9.71
2018-01-01T05:09:08.861Z,9.96
2018-01-01T05:10:08.833Z,9.79
2018-01-01T05:11:08.779Z,9.78
2018-01-01T05:12:08.736Z,9.91
2018-01-01T05:13:08.703Z,9.96
2018-01-01T05:14:08.650Z,9.89
2018-01-01T05:15:08.617Z,9.93
2018-01-01T05:16:08.562Z,10.09
2018-01-01T05:17:08.541Z,9.91
2018-01-01T05:18:08.490Z,9.88
2018-01-01T05:19:08.453Z,9.79
2018-01-01T05:20:08.411Z,9.86
2018-01-01T05:21:08.370Z,9.93
2018-01-01T05:22:08.333Z,9.85
2018-01-01T05:23:08.287Z,9.68
2018-01-01T05:24:08.247Z,9.73
2018-01-01T05:25:08.204Z,9.68
2018-01-01T05:26:08.161Z,9.66
2018-01-01T05:27:08.128Z,9.66
2018-01-01T05:28:08.066Z,9.49
2018-01-01T05:29:08.043Z,9.56
2018-01-01T05:30:08.023Z,9.63
2018-01-01T05:31:07.976Z,9.45
2018-01-01T05:32:07.971Z,9.56
2018-01-01T05:33:07.901Z,9.35
2018-01-01T05:34:07.836Z,9.35
2018-01-01T05:35:07.783Z,9.06
2018-01-01T05:36:07.753Z,9.21
2018-01-01T05:37:07.720Z,9.31
2018-01-01T05:38:07.661Z,9.31
2018-01-01T05:39:07.621Z,9.24
2018-01-01T05:40:07.591Z,9.02
2018-01-01T05:41:07.539Z,9.10
2018-01-01T05:42:07.508Z,9.06
2018-01-01T05:43:07.475Z,9.21
2018-01-01T05:44:07.440Z,9.16
2018-01-01T05:45:07.376Z,9.02
2018-01-01T05:46:07.355Z,8.91
2018-01-01T05:47:07.299Z,9.09
2018-01-01T05:48:07.247Z,9.21
2018-01-01T05:49:07.225Z,9.27
2018-01-01T05:50:07.189Z,9.27
2018-01-01T05:51:07.138Z,9.04
2018-01-01T05:52:07.092Z,9.05
2018-01-01T05:53:07.066Z,8.96
2018-01-01T05:54:07.028Z,8.83
2018-01-01T05:55:06.975Z,8.76
2018-01-01T05:56:06.926Z,8.83
2018-01-01T05:57:06.879Z,8.94
2018-01-01T05:58:06.846Z,8.94
2018-01-01T05:59:06.808Z,8.93
2018-01-01T06:00:06.765Z,8.90
2018-01-01T06:01:06.719Z,8.91
2018-01-01T06:02:06.689Z,9.04
2018-01-01T06:03:06.644Z,8.96
2018-01-01T06:04:06.622Z,8.91
2018-01-01T06:05:06.543Z,8.93
2018-01-01T06:06:06.504Z,8.91
2018-01-01T06:07:06.466Z,8.69
2018-01-01T06:08:06.433Z,8.78
2018-01-01T06:09:08.039Z,8.81
2018-01-01T06:10:06.394Z,8.99
2018-01-01T06:11:06.316Z,8.87
2018-01-01T06:12:06.256Z,8.83
2018-01-01T06:13:06.239Z,8.76
2018-01-01T06:14:06.218Z,8.79
2018-01-01T06:15:06.145Z,8.83
2018-01-01T06:16:06.106Z,8.91
2018-01-01T06:17:06.064Z,8.72
2018-01-01T06:18:06.013Z,8.83
2018-01-01T06:19:05.981Z,8.78
2018-01-01T06:20:05.928Z,8.79
2018-01-01T06:21:05.888Z,8.72
2018-01-01T06:22:05.849Z,8.81
2018-01-01T06:23:05.812Z,8.90
2018-01-01T06:24:05.759Z,8.99
2018-01-01T06:25:05.721Z,8.97
2018-01-01T06:26:05.696Z,9.04
2018-01-01T06:27:05.623Z,9.05
2018-01-01T06:28:05.599Z,8.91
2018-01-01T06:29:05.554Z,9.12
2018-01-01T06:30:05.519Z,9.04
2018-01-01T06:31:05.457Z,8.97
2018-01-01T06:32:05.428Z,9.02
2018-01-01T06:33:05.390Z,9.06
2018-01-01T06:34:05.333Z,9.27
2018-01-01T06:35:05.299Z,9.18
2018-01-01T06:36:05.263Z,9.16
2018-01-01T06:37:05.220Z,9.06
2018-01-01T06:38:05.175Z,9.12
2018-01-01T06:39:05.150Z,9.12
2018-01-01T06:40:05.079Z,9.09
2018-01-01T06:41:05.063Z,9.28
2018-01-01T06:42:05.005Z,9.31
2018-01-01T06:43:04.955Z,9.18
2018-01-01T06:44:04.937Z,9.21
2018-01-01T06:45:04.898Z,9.04
2018-01-01T06:46:04.861Z,8.99
2018-01-01T06:47:04.802Z,9.12
2018-01-01T06:48:04.779Z,9.28
2018-01-01T06:49:04.730Z,9.23
2018-01-01T06:50:04.667Z,9.34
2018-01-01T06:51:04.633Z,9.32
2018-01-01T06:52:04.580Z,9.24
2018-01-01T06:53:04.542Z,9.24
2018-01-01T06:54:04.502Z,9.27
2018-01-01T06:55:04.500Z,9.20
2018-01-01T06:56:04.423Z,9.13
2018-01-01T06:57:04.415Z,9.13
2018-01-01T06:58:04.333Z,9.10
2018-01-01T06:59:04.305Z,9.27
2018-01-01T07:00:04.254Z,9.18
2018-01-01T07:01:04.228Z,9.24
2018-01-01T07:02:04.182Z,8.37
2018-01-01T07:03:04.119Z,7.53
2018-01-01T07:04:04.099Z,7.02
2018-01-01T07:05:04.035Z,6.76
2018-01-01T07:06:04.039Z,6.47
2018-01-01T07:07:03.962Z,6.40
2018-01-01T07:08:03.923Z,6.25
2018-01-01T07:09:03.903Z,6.10
2018-01-01T07:10:03.862Z,6.06
2018-01-01T07:11:03.791Z,5.81
2018-01-01T07:12:03.748Z,5.86
2018-01-01T07:13:03.713Z,5.82
2018-01-01T07:14:03.687Z,5.68
2018-01-01T07:15:03.627Z,5.74
2018-01-01T07:16:03.578Z,5.68
2018-01-01T07:17:03.550Z,5.57
2018-01-01T07:18:03.522Z,5.64
2018-01-01T07:19:03.453Z,5.56
2018-01-01T07:20:03.416Z,5.60
2018-01-01T07:21:03.360Z,5.56
2018-01-01T07:22:03.332Z,5.55
2018-01-01T07:23:03.302Z,5.55
2018-01-01T07:24:03.251Z,5.49
2018-01-01T07:25:03.191Z,5.49
2018-01-01T07:26:03.164Z,5.48
2018-01-01T07:27:03.154Z,5.46
2018-01-01T07:28:03.072Z,5.56
2018-01-01T07:29:03.015Z,5.56
2018-01-01T07:30:02.981Z,5.56
2018-01-01T07:31:02.933Z,5.57
2018-01-01T07:32:02.897Z,5.56
2018-01-01T07:33:02.858Z,5.53
2018-01-01T07:34:02.841Z,5.55
2018-01-01T07:35:02.784Z,5.59
2018-01-01T07:36:02.715Z,5.59
2018-01-01T07:37:02.690Z,5.55
2018-01-01T07:38:02.648Z,5.55
2018-01-01T07:39:02.634Z,5.64
2018-01-01T07:40:02.546Z,5.60
2018-01-01T07:41:02.509Z,5.60
2018-01-01T07:42:02.452Z,5.66
2018-01-01T07:43:02.431Z,5.59
2018-01-01T07:44:02.362Z,5.59
2018-01-01T07:45:02.327Z,5.67
2018-01-01T07:46:02.286Z,5.63
2018-01-01T07:47:02.238Z,5.55
2018-01-01T07:48:02.211Z,5.60
2018-01-01T07:49:02.154Z,5.64
2018-01-01T07:50:02.136Z,5.60
2018-01-01T07:51:02.079Z,5.63
2018-01-01T07:52:02.018Z,5.60
2018-01-01T07:53:01.976Z,5.59
2018-01-01T07:54:01.965Z,5.66
2018-01-01T07:55:01.895Z,5.74
2018-01-01T07:56:01.845Z,5.71
2018-01-01T07:57:01.805Z,5.71
2018-01-01T07:58:01.756Z,5.71
2018-01-01T07:59:01.718Z,5.66
2018-01-01T08:00:01.678Z,5.75
2018-01-01T08:01:01.630Z,5.67
2018-01-01T08:02:01.584Z,5.70
2018-01-01T08:03:01.546Z,5.67
2018-01-01T08:04:01.509Z,5.68
2018-01-01T08:05:01.455Z,5.71
2018-01-01T08:06:01.442Z,5.82
2018-01-01T08:07:01.367Z,5.82
2018-01-01T08:08:01.338Z,5.77
2018-01-01T08:09:01.297Z,5.74
2018-01-01T08:10:01.249Z,5.74
2018-01-01T08:11:01.192Z,5.73
2018-01-01T08:12:01.160Z,5.71
2018-01-01T08:13:01.106Z,5.70
2018-01-01T08:14:01.078Z,5.78
2018-01-01T08:15:01.031Z,5.82
2018-01-01T08:16:00.982Z,5.96
2018-01-01T08:17:00.939Z,5.88
2018-01-01T08:18:00.916Z,6.04
2018-01-01T08:19:00.845Z,6.09
2018-01-01T08:20:00.809Z,6.09
2018-01-01T08:21:00.766Z,6.16
2018-01-01T08:22:00.718Z,6.14
2018-01-01T08:23:00.681Z,6.38
2018-01-01T08:24:00.664Z,6.47
2018-01-01T08:25:00.599Z,6.48
2018-01-01T08:26:00.553Z,6.48
2018-01-01T08:27:00.582Z,6.46
2018-01-01T08:28:00.604Z,6.46
2018-01-01T08:29:00.567Z,6.50
2018-01-01T08:30:00.369Z,6.51
2018-01-01T08:31:00.361Z,6.59
2018-01-01T08:32:00.292Z,6.56
2018-01-01T08:33:00.257Z,6.65
2018-01-01T08:34:00.200Z,6.72
2018-01-01T08:35:00.169Z,6.87
2018-01-01T08:36:00.108Z,6.87
2018-01-01T08:37:00.072Z,6.91
2018-01-01T08:38:00.036Z,6.97
2018-01-01T08:38:59.986Z,6.94
2018-01-01T08:39:59.951Z,6.89
2018-01-01T08:40:59.906Z,6.91
2018-01-01T08:41:59.861Z,7.02
2018-01-01T08:42:59.827Z,6.97
2018-01-01T08:43:59.772Z,7.05
2018-01-01T08:44:59.737Z,7.02
2018-01-01T08:45:59.683Z,7.02
2018-01-01T08:46:59.681Z,7.09
2018-01-01T08:47:59.603Z,7.04
2018-01-01T08:48:59.567Z,7.04
2018-01-01T08:49:59.539Z,6.99
2018-01-01T08:50:59.486Z,7.02
2018-01-01T08:51:59.461Z,7.02
2018-01-01T08:52:59.400Z,7.13
2018-01-01T08:53:59.361Z,6.97
2018-01-01T08:54:59.321Z,6.99
2018-01-01T08:55:59.260Z,7.12
2018-01-01T08:56:59.232Z,7.08
2018-01-01T08:57:59.269Z,7.02
2018-01-01T08:58:59.142Z,6.99
2018-01-01T08:59:59.096Z,6.99
2018-01-01T09:00:59.075Z,7.07
2018-01-01T09:01:59.031Z,7.22
2018-01-01T09:02:58.970Z,7.31
2018-01-01T09:03:58.927Z,7.31
2018-01-01T09:04:58.881Z,7.35
2018-01-01T09:05:58.832Z,7.44
2018-01-01T09:06:58.793Z,7.24
2018-01-01T09:07:58.764Z,7.42
2018-01-01T09:08:58.738Z,7.47
2018-01-01T09:09:58.675Z,7.41
2018-01-01T09:10:58.632Z,7.34
2018-01-01T09:11:58.581Z,7.40
2018-01-01T09:12:58.562Z,7.32
2018-01-01T09:13:58.520Z,7.38
2018-01-01T09:14:58.460Z,7.38
2018-01-01T09:15:58.422Z,7.49
2018-01-01T09:16:58.380Z,7.50
2018-01-01T09:17:58.340Z,7.44
2018-01-01T09:18:58.304Z,7.42
2018-01-01T09:19:58.321Z,7.44
2018-01-01T09:20:58.354Z,7.49
2018-01-01T09:21:58.303Z,7.52
2018-01-01T09:22:58.141Z,7.52
2018-01-01T09:23:58.108Z,7.50
2018-01-01T09:24:58.041Z,7.62
2018-01-01T09:25:58.006Z,7.67
2018-01-01T09:26:58.029Z,7.59
2018-01-01T09:27:57.912Z,7.63
2018-01-01T09:28:57.868Z,7.72
2018-01-01T09:29:57.836Z,7.85
2018-01-01T09:30:57.796Z,7.72
2018-01-01T09:31:57.782Z,7.82
2018-01-01T09:32:57.717Z,7.71
2018-01-01T09:33:57.730Z,7.84
2018-01-01T09:34:57.638Z,7.84
2018-01-01T09:35:57.576Z,8.15
2018-01-01T09:36:57.557Z,8.96
2018-01-01T09:37:57.503Z,9.01
2018-01-01T09:38:57.458Z,9.67
2018-01-01T09:39:57.428Z,9.50
2018-01-01T09:40:57.368Z,9.78
2018-01-01T09:41:57.343Z,10.52
2018-01-01T09:42:57.333Z,11.09
2018-01-01T09:43:57.292Z,10.42
2018-01-01T09:44:57.218Z,10.42
2018-01-01T09:45:57.208Z,10.06
2018-01-01T09:46:57.183Z,9.56
2018-01-01T09:47:57.110Z,10.30
2018-01-01T09:48:57.118Z,9.76
2018-01-01T09:49:57.084Z,10.55
2018-01-01T09:50:57.112Z,10.99
2018-01-01T09:51:56.960Z,10.62
2018-01-01T09:52:56.927Z,11.24
2018-01-01T09:53:56.874Z,11.39
2018-01-01T09:54:56.907Z,10.59
2018-01-01T09:55:57.012Z,10.28
2018-01-01T09:56:56.789Z,9.93
2018-01-01T09:57:56.744Z,9.91
2018-01-01T09:58:56.707Z,10.07
2018-01-01T09:59:56.672Z,10.10
2018-01-01T10:00:56.641Z,9.09
2018-01-01T10:01:56.598Z,9.56
2018-01-01T10:02:56.576Z,9.25
2018-01-01T10:03:56.550Z,8.81
2018-01-01T10:04:56.492Z,9.12
2018-01-01T10:05:56.491Z,9.18
2018-01-01T10:06:56.428Z,8.76
2018-01-01T10:07:56.451Z,9.40
2018-01-01T10:08:56.372Z,9.93
2018-01-01T10:09:56.333Z,9.45
2018-01-01T10:10:56.295Z,9.61
2018-01-01T10:11:56.391Z,9.68
2018-01-01T10:12:56.239Z,10.34
2018-01-01T10:13:56.179Z,10.07
2018-01-01T10:14:56.154Z,9.39
2018-01-01T10:15:56.116Z,9.18
2018-01-01T10:16:56.108Z,8.96
2018-01-01T10:17:56.117Z,8.79
2018-01-01T10:18:56.024Z,8.81
2018-01-01T10:19:55.977Z,8.65
2018-01-01T10:20:55.959Z,8.71
2018-01-01T10:21:55.906Z,8.79
2018-01-01T10:22:55.894Z,9.28
2018-01-01T10:23:55.830Z,9.20
2018-01-01T10:24:55.803Z,9.67
2018-01-01T10:25:55.761Z,9.49
2018-01-01T10:26:55.724Z,10.12
2018-01-01T10:27:55.683Z,9.56
2018-01-01T10:28:55.664Z,10.00
2018-01-01T10:29:55.608Z,9.24
2018-01-01T10:30:55.570Z,8.94
2018-01-01T10:31:55.560Z,8.71
2018-01-01T10:32:55.511Z,8.68
2018-01-01T10:33:55.487Z,8.69
2018-01-01T10:34:55.453Z,8.58
2018-01-01T10:35:55.481Z,8.54
2018-01-01T10:36:55.393Z,8.63
2018-01-01T10:37:55.425Z,8.55
2018-01-01T10:38:55.449Z,8.48
2018-01-01T10:39:55.273Z,8.45
2018-01-01T10:40:55.274Z,8.37
2018-01-01T10:41:55.179Z,8.33
2018-01-01T10:42:55.206Z,8.32
2018-01-01T10:43:55.130Z,8.30
2018-01-01T10:44:55.060Z,8.26
2018-01-01T10:45:55.069Z,8.12
2018-01-01T10:46:54.999Z,8.14
2018-01-01T10:47:54.944Z,8.12
2018-01-01T10:48:54.968Z,8.22
2018-01-01T10:49:54.941Z,8.25
2018-01-01T10:50:54.899Z,8.21
2018-01-01T10:51:54.794Z,8.29
2018-01-01T10:52:54.823Z,8.22
2018-01-01T10:53:54.713Z,8.26
2018-01-01T10:54:54.666Z,8.20
2018-01-01T10:55:54.634Z,8.22
2018-01-01T10:56:54.598Z,8.21
2018-01-01T10:57:54.556Z,8.28
2018-01-01T10:58:54.528Z,8.28
2018-01-01T10:59:54.460Z,8.26
2018-01-01T11:00:54.427Z,8.26
2018-01-01T11:01:54.396Z,8.18
2018-01-01T11:02:54.344Z,8.17
2018-01-01T11:03:54.320Z,8.07
2018-01-01T11:04:54.331Z,8.14
2018-01-01T11:05:54.379Z,8.20
2018-01-01T11:06:54.243Z,8.22
2018-01-01T11:07:55.909Z,8.07
2018-01-01T11:08:55.967Z,8.22
2018-01-01T11:09:54.110Z,8.29
2018-01-01T11:10:54.022Z,8.22
2018-01-01T11:11:53.987Z,8.08
2018-01-01T11:12:53.943Z,8.20
2018-01-01T11:13:53.903Z,8.11
2018-01-01T11:14:53.890Z,8.25
2018-01-01T11:15:53.826Z,8.32
2018-01-01T11:16:53.789Z,8.28
2018-01-01T11:17:53.758Z,8.35
2018-01-01T11:18:53.746Z,8.32
2018-01-01T11:19:53.664Z,8.36
2018-01-01T11:20:53.620Z,8.48
2018-01-01T11:21:53.575Z,8.54
2018-01-01T11:22:53.530Z,8.65
2018-01-01T11:23:53.494Z,8.66
2018-01-01T11:24:53.483Z,8.65
2018-01-01T11:25:53.436Z,8.68
2018-01-01T11:26:53.386Z,8.47
2018-01-01T11:27:53.347Z,8.53
2018-01-01T11:28:53.316Z,8.50
2018-01-01T11:29:53.252Z,8.36
2018-01-01T11:30:53.220Z,8.35
2018-01-01T11:31:53.173Z,8.32
2018-01-01T11:32:53.133Z,8.44
2018-01-01T11:33:53.100Z,8.35
2018-01-01T11:34:53.045Z,8.32
2018-01-01T11:35:53.008Z,8.35
2018-01-01T11:36:52.971Z,8.45
2018-01-01T11:37:53.043Z,8.35
2018-01-01T11:38:52.886Z,8.50
2018-01-01T11:39:52.859Z,8.65
2018-01-01T11:40:52.800Z,8.75
2018-01-01T11:41:52.761Z,9.04
2018-01-01T11:42:52.764Z,9.02
2018-01-01T11:43:52.692Z,9.04
2018-01-01T11:44:52.646Z,9.05
2018-01-01T11:45:52.601Z,9.30
2018-01-01T11:46:52.570Z,9.27
2018-01-01T11:47:52.528Z,9.05
2018-01-01T11:48:52.476Z,8.91
2018-01-01T11:49:52.450Z,8.90
2018-01-01T11:50:52.414Z,8.87
2018-01-01T11:51:52.380Z,8.71
2018-01-01T11:52:52.341Z,8.58
2018-01-01T11:53:52.303Z,8.62
2018-01-01T11:54:52.238Z,8.66
2018-01-01T11:55:52.209Z,8.65
2018-01-01T11:56:52.165Z,8.58
2018-01-01T11:57:52.127Z,8.53
2018-01-01T11:58:52.087Z,8.44
2018-01-01T11:59:52.049Z,8.37
2018-01-01T12:00:51.999Z,8.32
2018-01-01T12:01:51.968Z,8.47
2018-01-01T12:02:51.923Z,8.45
2018-01-01T12:03:51.899Z,8.42
2018-01-01T12:04:51.861Z,8.47
2018-01-01T12:05:51.810Z,8.42
2018-01-01T12:06:51.763Z,8.44
2018-01-01T12:07:51.829Z,8.45
2018-01-01T12:08:51.684Z,8.48
2018-01-01T12:09:51.653Z,8.45
2018-01-01T12:10:51.597Z,8.53
2018-01-01T12:11:51.558Z,8.45
2018-01-01T12:12:51.536Z,8.57
2018-01-01T12:13:51.472Z,8.60
2018-01-01T12:14:51.438Z,8.60
2018-01-01T12:15:51.396Z,8.48
2018-01-01T12:16:51.363Z,8.36
2018-01-01T12:17:51.325Z,8.42
2018-01-01T12:18:51.283Z,8.48
2018-01-01T12:19:51.241Z,8.54
2018-01-01T12:20:51.210Z,8.39
2018-01-01T12:21:51.161Z,8.35
2018-01-01T12:22:51.113Z,8.37
2018-01-01T12:23:51.067Z,8.33
2018-01-01T12:24:51.036Z,8.45
2018-01-01T12:25:50.994Z,8.37
2018-01-01T12:26:50.960Z,8.40
2018-01-01T12:27:50.911Z,8.47
2018-01-01T12:28:50.884Z,8.51
2018-01-01T12:29:50.830Z,8.63
2018-01-01T12:30:50.793Z,8.53
2018-01-01T12:31:50.756Z,8.53
2018-01-01T12:32:50.715Z,8.48
2018-01-01T12:33:50.681Z,8.51
2018-01-01T12:34:50.633Z,8.57
2018-01-01T12:35:50.604Z,8.40
2018-01-01T12:36:50.545Z,8.45
2018-01-01T12:37:50.515Z,8.35
2018-01-01T12:38:50.463Z,8.35
2018-01-01T12:39:50.435Z,8.36
2018-01-01T12:40:50.385Z,8.45
2018-01-01T12:41:50.340Z,8.44
2018-01-01T12:42:50.333Z,8.44
2018-01-01T12:43:50.258Z,8.33
2018-01-01T12:44:50.509Z,8.35
2018-01-01T12:45:50.191Z,8.32
2018-01-01T12:46:50.151Z,8.33
2018-01-01T12:47:50.101Z,8.32
2018-01-01T12:48:50.059Z,8.32
2018-01-01T12:49:50.087Z,8.28
2018-01-01T12:50:49.976Z,8.33
2018-01-01T12:51:49.938Z,8.33
2018-01-01T12:52:49.898Z,8.33
2018-01-01T12:53:49.866Z,8.36
2018-01-01T12:54:49.817Z,8.32
2018-01-01T12:55:49.770Z,8.36
2018-01-01T12:56:49.744Z,8.40
2018-01-01T12:57:49.710Z,8.45
2018-01-01T12:58:49.653Z,8.39
2018-01-01T12:59:49.598Z,8.30
2018-01-01T13:00:49.575Z,8.29
2018-01-01T13:01:49.519Z,8.29
2018-01-01T13:02:49.523Z,8.26
2018-01-01T13:03:49.442Z,8.15
2018-01-01T13:04:49.418Z,8.25
2018-01-01T13:05:49.359Z,8.25
2018-01-01T13:06:49.329Z,8.39
2018-01-01T13:07:49.386Z,8.32
2018-01-01T13:08:49.274Z,8.40
2018-01-01T13:09:49.207Z,8.54
2018-01-01T13:10:49.182Z,8.36
2018-01-01T13:11:49.127Z,8.51
2018-01-01T13:12:49.079Z,8.20
2018-01-01T13:13:49.047Z,8.25
2018-01-01T13:14:48.997Z,8.29
2018-01-01T13:15:48.963Z,8.22
2018-01-01T13:16:48.912Z,8.21
2018-01-01T13:17:48.891Z,8.26
2018-01-01T13:18:48.851Z,8.26
2018-01-01T13:19:48.843Z,8.22
2018-01-01T13:20:48.959Z,8.15
2018-01-01T13:21:48.706Z,8.00
2018-01-01T13:22:48.690Z,8.07
2018-01-01T13:23:48.639Z,8.03
2018-01-01T13:24:48.602Z,8.10
2018-01-01T13:25:48.546Z,8.15
2018-01-01T13:26:48.509Z,8.11